Time;durP1;ratioP1;P1;durP2;ratioP2;P2;SDS_P1;SDS_P2;PMS_P1;PMS_P2;Temp;Humidity;BMP_temperature;BMP_pressure;BME280_temperature;BME280_humidity;BME280_pressure;Samples;Min_cycle;Max_cycle;Signal;HPM_P1;HPM_P2
2022/06/10 00:00:32;;;;;;;5.43;5.00;;;12.80;91.60;;;11.70;84.41;98396.72;5003842;28;20465;-77
2022/06/10 00:02:59;;;;;;;6.30;5.17;;;12.80;91.60;;;11.77;84.60;98401.06;4977172;28;20464;-71
2022/06/10 00:05:30;;;;;;;6.00;5.50;;;12.80;91.80;;;11.72;85.16;98402.75;4980231;28;21096;-73
2022/06/10 00:07:58;;;;;;;6.43;5.77;;;12.80;91.80;;;11.69;85.06;98401.31;4980685;28;20958;-74
2022/06/10 00:10:28;;;;;;;7.50;5.90;;;12.70;91.90;;;11.67;85.20;98399.88;4978972;28;20966;-75
2022/06/10 00:12:56;;;;;;;12.00;6.00;;;12.70;92.40;;;11.58;85.54;98402.78;4978459;28;20558;-75
2022/06/10 00:15:24;;;;;;;8.30;6.70;;;12.60;92.20;;;11.64;85.65;98397.59;4984598;28;20450;-75
2022/06/10 00:17:52;;;;;;;6.83;6.23;;;12.60;92.80;;;11.60;85.83;98405.31;4974484;28;20458;-73
2022/06/10 00:20:23;;;;;;;9.33;5.77;;;12.60;92.60;;;11.64;86.03;98401.13;4981917;28;20455;-74
2022/06/10 00:22:50;;;;;;;6.70;6.10;;;12.60;92.80;;;11.38;86.95;98399.31;4992180;28;20469;-72
2022/06/10 00:25:19;;;;;;;7.57;5.97;;;12.60;93.10;;;11.34;88.03;98407.88;4983042;28;20508;-74
2022/06/10 00:27:47;;;;;;;8.57;5.47;;;12.50;93.90;;;11.37;87.41;98411.19;4983801;28;21027;-73
2022/06/10 00:30:17;;;;;;;7.03;6.30;;;12.40;94.00;;;11.30;88.25;98412.03;4983395;28;20457;-74
2022/06/10 00:32:46;;;;;;;7.40;5.70;;;12.40;94.30;;;11.29;88.72;98410.34;5050557;28;20860;-73
2022/06/10 00:35:15;;;;;;;6.03;5.53;;;12.40;95.00;;;11.30;88.92;98414.75;5052376;28;20465;-74
2022/06/10 00:37:43;;;;;;;8.10;6.43;;;12.40;95.30;;;11.22;89.63;98401.44;4981615;28;20514;-72
2022/06/10 00:40:14;;;;;;;8.10;6.30;;;12.40;95.30;;;11.24;89.41;98412.88;4974084;28;20498;-74
2022/06/10 00:42:42;;;;;;;6.83;6.20;;;12.40;95.40;;;11.21;89.31;98413.28;4978112;28;20464;-73
2022/06/10 00:45:50;;;;;;;10.13;6.87;;;12.30;95.60;;;11.10;90.59;98416.63;4980634;28;20568;-71
2022/06/10 00:48:22;;;;;;;7.17;6.40;;;12.20;96.20;;;11.07;91.12;98423.28;4977812;28;20447;-75
2022/06/10 00:50:51;;;;;;;8.60;6.60;;;12.20;97.10;;;11.10;90.17;98425.56;4989248;28;20487;-72
2022/06/10 00:53:22;;;;;;;6.70;6.00;;;12.20;97.10;;;11.32;89.47;98425.34;4979271;28;20812;-73
2022/06/10 00:55:53;;;;;;;6.83;6.13;;;12.30;96.50;;;11.18;90.21;98428.06;4980279;28;20560;-73
2022/06/10 00:58:25;;;;;;;8.70;7.80;;;12.30;96.20;;;11.16;90.47;98422.03;5000891;28;20468;-71
2022/06/10 01:00:53;;;;;;;9.80;6.90;;;12.20;96.80;;;11.28;89.43;98427.63;5000803;28;20513;-72
2022/06/10 01:03:22;;;;;;;6.57;5.93;;;12.30;97.00;;;11.04;90.55;98424.53;4978333;28;20882;-74
2022/06/10 01:05:49;;;;;;;6.70;6.00;;;12.20;96.70;;;11.09;90.75;98433.88;4979013;28;20544;-73
2022/06/10 01:08:21;;;;;;;8.33;6.10;;;12.10;97.50;;;11.04;91.10;98429.09;4976414;28;20469;-72
2022/06/10 01:11:07;;;;;;;8.10;6.40;;;12.10;97.50;;;10.98;91.64;98436.16;4978577;28;20556;-77
2022/06/10 01:13:47;;;;;;;7.97;6.27;;;12.00;98.30;;;10.88;91.87;98443.88;4977341;28;20470;-72
2022/06/10 01:16:26;;;;;;;8.50;6.90;;;11.90;99.20;;;10.69;91.65;98415.78;4996038;28;20613;-74
2022/06/10 01:19:06;;;;;;;8.23;6.43;;;11.90;99.90;;;10.97;92.39;98434.50;4974636;28;20473;-72
2022/06/10 01:22:19;;;;;;;7.47;6.77;;;11.90;99.90;;;10.76;92.88;98439.06;4993648;28;20474;-74
2022/06/10 01:25:13;;;;;;;8.70;6.47;;;11.80;99.70;;;10.93;91.89;98437.84;4976616;28;20477;-73
2022/06/10 01:27:57;;;;;;;8.83;6.90;;;11.90;99.90;;;10.78;92.49;98441.59;4996585;28;20469;-78
2022/06/10 01:31:05;;;;;;;8.13;7.33;;;11.90;99.90;;;10.59;93.95;98448.63;4981373;28;21129;-71
2022/06/10 01:34:12;;;;;;;8.40;6.47;;;11.70;99.90;;;10.48;95.21;98448.16;4983352;28;20734;-72
2022/06/10 01:36:49;;;;;;;9.03;8.00;;;11.60;99.90;;;10.43;95.62;98457.91;4984211;28;20463;-74
2022/06/10 01:39:29;;;;;;;8.00;7.30;;;11.50;99.90;;;10.47;95.77;98465.41;4986522;28;20476;-71
2022/06/10 01:42:05;;;;;;;13.53;7.83;;;11.60;99.90;;;10.46;95.54;98454.81;4988730;28;20662;-70
2022/06/10 01:44:41;;;;;;;8.07;6.97;;;11.60;99.90;;;10.56;95.18;98465.25;4980417;28;20480;-70
2022/06/10 01:47:18;;;;;;;7.33;6.63;;;11.60;99.90;;;10.52;95.03;98472.06;4977327;28;20464;-70
2022/06/10 01:49:53;;;;;;;7.83;7.17;;;11.60;99.90;;;10.52;94.88;98474.78;4978500;28;20942;-75
2022/06/10 01:52:27;;;;;;;9.17;7.47;;;11.60;99.90;;;10.57;94.82;98464.22;4981617;28;20457;-74
2022/06/10 01:55:07;;;;;;;8.30;7.50;;;11.60;99.90;;;10.39;96.04;98471.00;5006344;28;20468;-74
2022/06/10 01:57:41;;;;;;;11.43;7.67;;;11.50;99.90;;;10.40;96.10;98471.81;4978737;28;20491;-72
2022/06/10 02:00:15;;;;;;;7.37;6.73;;;11.40;99.90;;;10.62;94.28;98480.63;4978672;28;20453;-74
2022/06/10 02:02:53;;;;;;;8.27;7.37;;;11.60;99.90;;;10.46;94.64;98479.97;5000071;28;20471;-75
2022/06/10 02:05:24;;;;;;;8.50;7.60;;;11.60;99.90;;;10.37;95.63;98473.03;5002985;28;20464;-75
2022/06/10 02:07:58;;;;;;;8.87;7.53;;;11.50;99.90;;;10.42;95.44;98465.22;4984403;28;20456;-72
2022/06/10 02:10:29;;;;;;;9.63;8.63;;;11.50;99.90;;;10.25;96.46;98472.78;4975247;28;20444;-73
2022/06/10 02:13:00;;;;;;;9.27;8.20;;;11.40;99.90;;;10.33;96.98;98477.19;4975169;28;20459;-72
2022/06/10 02:15:34;;;;;;;11.13;8.40;;;11.40;99.90;;;9.94;96.90;98430.13;4976218;28;20561;-69
2022/06/10 02:18:09;;;;;;;10.60;8.00;;;11.40;99.90;;;10.20;97.42;98478.81;4977819;28;20487;-70
2022/06/10 02:20:41;;;;;;;8.63;7.83;;;11.30;99.90;;;10.16;97.56;98476.69;4978285;28;20707;-71
2022/06/10 02:23:13;;;;;;;12.80;8.70;;;11.30;99.90;;;10.16;98.21;98474.84;5003070;28;20512;-72
2022/06/10 02:25:45;;;;;;;10.83;8.57;;;11.30;99.90;;;10.11;97.95;98473.78;4993028;28;20563;-70
2022/06/10 02:28:19;;;;;;;9.37;8.37;;;11.20;99.90;;;10.55;95.84;98485.19;4998353;28;21233;-70
2022/06/10 02:30:54;;;;;;;9.40;8.50;;;11.50;99.90;;;10.36;95.75;98490.28;4974079;28;20540;-74
2022/06/10 02:33:23;;;;;;;14.40;9.27;;;11.40;99.90;;;10.21;97.17;98491.25;4984969;28;20463;-72
2022/06/10 02:35:57;;;;;;;9.50;8.60;;;11.30;99.90;;;10.13;98.00;98488.75;4978169;28;20993;-71
2022/06/10 02:38:34;;;;;;;9.37;7.77;;;11.30;99.90;;;10.08;98.16;98496.59;4977733;28;20576;-73
2022/06/10 02:41:10;;;;;;;9.57;8.67;;;11.20;99.90;;;10.02;98.70;98502.81;4976984;28;20455;-72
2022/06/10 02:43:49;;;;;;;11.17;8.87;;;11.10;99.90;;;9.98;98.89;98506.97;4987663;28;20517;-72
2022/06/10 02:46:23;;;;;;;10.23;8.80;;;11.10;99.90;;;9.97;99.54;98510.69;4992051;28;20540;-71
2022/06/10 02:49:01;;;;;;;11.97;8.83;;;11.10;99.90;;;10.07;98.76;98511.97;4986908;28;20463;-70
2022/06/10 02:51:28;;;;;;;9.40;8.07;;;11.10;99.90;;;10.14;98.33;98516.56;4981276;28;20558;-72
2022/06/10 02:53:57;;;;;;;10.83;8.27;;;11.20;99.90;;;10.11;97.73;98516.97;4984867;28;21205;-71
2022/06/10 02:56:28;;;;;;;10.50;8.97;;;11.20;99.90;;;10.19;97.12;98512.25;4981374;28;20456;-73
2022/06/10 03:01:58;;;;;;;8.93;8.03;;;11.30;99.90;;;10.16;98.48;98518.03;4983405;28;20502;-71
2022/06/10 03:04:39;;;;;;;13.70;8.70;;;11.20;99.90;;;10.20;97.83;98522.00;5000403;28;20464;-72
2022/06/10 03:07:35;;;;;;;9.10;8.17;;;11.30;99.90;;;10.20;96.93;98527.41;4979811;28;20446;-73
2022/06/10 03:10:25;;;;;;;8.93;8.10;;;11.30;99.90;;;10.11;97.32;98534.03;4979971;28;21025;-72
2022/06/10 03:13:22;;;;;;;10.10;9.10;;;11.20;99.90;;;10.08;98.16;98529.00;4976738;28;20954;-72
2022/06/10 03:16:06;;;;;;;10.07;8.30;;;11.10;99.90;;;10.26;97.44;98527.66;5028153;28;20579;-72
2022/06/10 03:18:47;;;;;;;9.60;8.33;;;11.30;99.90;;;10.36;95.92;98525.41;4989010;28;20467;-72
2022/06/10 03:21:24;;;;;;;9.30;8.40;;;11.40;99.90;;;10.41;95.71;98539.19;5008593;28;21229;-71
2022/06/10 03:24:05;;;;;;;12.63;9.70;;;11.50;99.90;;;10.44;95.94;98548.72;4978231;28;20480;-72
2022/06/10 03:26:44;;;;;;;10.60;9.50;;;11.50;99.90;;;10.49;96.29;98548.97;4993541;28;20490;-72
2022/06/10 03:29:20;;;;;;;11.97;7.83;;;11.50;99.90;;;10.57;94.97;98537.16;4983617;28;20499;-71
2022/06/10 03:31:53;;;;;;;8.50;7.80;;;11.60;99.90;;;10.58;94.48;98549.63;5000246;28;20465;-72
2022/06/10 03:34:27;;;;;;;10.17;8.53;;;11.70;99.90;;;10.50;94.66;98547.94;4979012;28;20923;-76
2022/06/10 03:36:59;;;;;;;10.30;8.97;;;11.60;99.90;;;10.46;95.37;98549.34;4981539;28;20564;-74
2022/06/10 03:39:28;;;;;;;9.60;8.60;;;11.60;99.90;;;10.38;95.80;98547.63;4985533;28;20507;-71
2022/06/10 03:42:07;;;;;;;10.27;8.00;;;11.50;99.90;;;10.22;96.20;98540.72;4985523;28;20949;-72
2022/06/10 03:44:35;;;;;;;13.17;9.07;;;11.50;99.90;;;10.26;96.83;98550.06;4992373;28;20509;-73
2022/06/10 03:47:06;;;;;;;9.80;8.50;;;11.40;99.90;;;10.41;97.23;98555.38;4979103;28;20471;-72
2022/06/10 03:49:44;;;;;;;8.80;8.00;;;11.50;99.90;;;10.58;95.74;98557.72;4983276;28;20510;-71
2022/06/10 03:52:20;;;;;;;10.77;8.17;;;11.60;99.90;;;10.83;93.63;98559.88;4982488;28;20821;-74
2022/06/10 03:54:48;;;;;;;8.87;7.97;;;11.90;99.90;;;10.68;94.04;98558.16;4982259;28;20531;-72
2022/06/10 03:57:17;;;;;;;10.20;8.57;;;11.80;99.90;;;10.68;94.46;98562.75;4992921;28;20835;-73
2022/06/10 03:59:45;;;;;;;9.83;8.67;;;11.80;99.90;;;10.84;94.17;98561.53;4995698;28;20548;-77
2022/06/10 04:02:12;;;;;;;9.03;8.23;;;11.90;99.90;;;11.20;91.61;98568.50;4981780;28;20486;-74
2022/06/10 04:04:42;;;;;;;8.40;7.60;;;12.20;97.50;;;11.82;88.75;98571.00;5043206;27;20966;-74
2022/06/10 04:07:13;;;;;;;8.70;7.80;;;12.70;95.00;;;12.49;84.35;98574.59;4982683;28;20449;-73
2022/06/10 04:09:41;;;;;;;8.77;7.07;;;13.50;90.80;;;12.92;81.49;98579.41;4978410;28;20475;-72
2022/06/10 04:12:09;;;;;;;7.43;6.83;;;14.20;87.20;;;13.13;79.54;98582.88;4976381;28;20978;-73
2022/06/10 04:14:36;;;;;;;7.70;7.00;;;14.50;84.80;;;13.40;78.19;98585.38;4979753;28;20568;-74
2022/06/10 04:17:06;;;;;;;11.00;7.10;;;14.90;83.80;;;13.93;75.77;98578.69;4977777;28;20934;-72
2022/06/10 04:19:33;;;;;;;13.03;6.67;;;15.50;82.20;;;14.38;73.24;98576.78;4981950;28;20466;-73
2022/06/10 04:22:02;;;;;;;6.97;6.37;;;15.80;81.00;;;14.76;72.29;98580.31;4978765;28;21136;-73
2022/06/10 04:24:30;;;;;;;7.07;6.47;;;16.20;80.30;;;14.65;71.73;98585.47;4995879;28;20477;-73
2022/06/10 04:26:58;;;;;;;6.67;5.87;;;16.30;79.40;;;15.32;68.93;98588.34;4983352;28;20476;-72
2022/06/10 04:29:25;;;;;;;6.10;5.50;;;16.60;78.30;;;15.11;68.35;98558.72;4982255;28;20462;-76
2022/06/10 04:31:52;;;;;;;6.70;5.67;;;16.90;76.80;;;14.72;69.57;98539.19;4976080;28;20470;-72
2022/06/10 04:34:20;;;;;;;7.93;5.80;;;16.90;77.00;;;15.31;68.61;98587.50;4976288;28;20509;-71
2022/06/10 04:36:47;;;;;;;8.07;5.63;;;17.30;76.00;;;16.79;67.07;98589.56;4980807;28;21000;-71
2022/06/10 04:39:14;;;;;;;11.70;5.37;;;18.00;77.30;;;18.19;61.76;98583.78;4980479;28;20471;-76
2022/06/10 04:41:43;;;;;;;5.77;5.27;;;19.30;75.10;;;18.52;57.12;98584.75;4982867;28;20460;-78
2022/06/10 04:44:10;;;;;;;8.77;4.50;;;19.90;69.40;;;19.05;57.45;98582.41;4977956;28;20464;-78
2022/06/10 04:46:42;;;;;;;5.10;4.30;;;20.10;70.00;;;19.71;55.98;98575.06;4973976;28;20491;-76
2022/06/10 04:49:10;;;;;;;6.70;6.10;;;20.80;69.70;;;18.81;55.47;98592.78;4977318;28;20468;-72
2022/06/10 04:51:37;;;;;;;6.60;6.00;;;20.40;66.10;;;18.70;55.28;98594.56;4976569;28;20576;-73
2022/06/10 04:54:05;;;;;;;7.03;5.83;;;20.40;65.20;;;19.54;53.61;98602.59;4978580;28;20472;-73
2022/06/10 04:56:33;;;;;;;7.30;5.70;;;20.60;65.10;;;19.35;53.22;98611.19;4979575;28;20461;-72
2022/06/10 04:59:02;;;;;;;7.67;6.43;;;20.70;64.20;;;18.68;54.94;98605.78;4983360;28;20470;-73
2022/06/10 05:01:29;;;;;;;8.50;6.33;;;20.40;64.10;;;18.36;56.33;98605.63;4982914;28;20520;-68
2022/06/10 05:03:58;;;;;;;9.47;6.80;;;20.20;64.10;;;18.19;56.87;98613.84;4978990;28;20554;-69
2022/06/10 05:06:25;;;;;;;7.97;5.47;;;20.10;64.20;;;18.75;55.08;98610.25;4974545;28;20542;-71
2022/06/10 05:08:52;;;;;;;6.90;6.03;;;20.50;63.90;;;19.60;54.25;98607.06;4974891;28;20460;-69
2022/06/10 05:11:20;;;;;;;7.80;5.40;;;20.60;64.80;;;19.16;55.65;98610.72;4973345;28;20487;-71
2022/06/10 05:13:47;;;;;;;6.63;6.03;;;20.40;65.10;;;19.02;55.28;98610.31;4980763;28;20479;-71
2022/06/10 05:16:16;;;;;;;7.97;6.90;;;20.70;63.70;;;19.10;54.62;98609.84;4978059;28;20456;-70
2022/06/10 05:18:43;;;;;;;7.20;6.43;;;20.70;63.30;;;20.07;52.22;98611.00;4985493;28;20591;-70
2022/06/10 05:21:11;;;;;;;8.40;6.70;;;21.20;63.30;;;20.39;51.42;98612.84;4973288;28;20559;-82
2022/06/10 05:23:38;;;;;;;6.80;6.20;;;21.80;62.60;;;20.15;52.17;98617.09;4979779;28;20475;-84
2022/06/10 05:26:06;;;;;;;9.17;6.43;;;21.60;62.60;;;21.08;49.55;98612.09;4993371;28;20529;-82
2022/06/10 05:28:33;;;;;;;5.93;5.40;;;22.00;61.80;;;20.96;50.19;98620.56;4980610;28;20565;-82
2022/06/10 05:31:01;;;;;;;6.67;5.97;;;22.30;61.00;;;21.05;49.44;98612.63;5002133;28;20440;-78
2022/06/10 05:34:44;;;;;;;6.93;6.17;;;22.40;60.40;;;20.99;49.80;98619.19;4992625;28;20475;-80
2022/06/10 05:36:17;;;;;;;7.10;6.40;;;22.10;60.70;;;21.16;49.25;98618.97;5008869;28;20893;-79
2022/06/10 05:38:45;;;;;;;6.27;5.67;;;22.40;60.30;;;21.60;47.72;98614.91;4991283;28;20450;-80
2022/06/10 05:43:56;;;;;;;9.30;8.50;;;22.80;58.80;;;21.07;48.78;98627.72;4970704;28;20475;-78
2022/06/10 05:46:24;;;;;;;9.60;8.70;;;22.70;59.00;;;21.02;49.08;98624.97;4982285;28;20479;-79
2022/06/10 05:48:52;;;;;;;9.20;8.33;;;23.00;58.40;;;20.75;50.23;98622.38;4979541;28;20450;-79
2022/06/10 05:51:19;;;;;;;8.77;7.80;;;22.80;58.80;;;21.21;49.04;98628.06;4976423;28;20999;-80
2022/06/10 05:53:46;;;;;;;7.63;6.23;;;22.90;58.20;;;21.79;47.31;98627.06;4983666;28;20472;-78
2022/06/10 05:56:14;;;;;;;8.33;7.33;;;22.90;58.10;;;21.18;48.85;98634.09;4978205;28;20462;-79
2022/06/10 05:58:41;;;;;;;7.40;6.67;;;23.10;57.90;;;22.15;46.90;98633.66;5002730;28;20462;-79
2022/06/10 06:01:09;;;;;;;9.10;7.60;;;23.60;57.60;;;21.91;47.33;98628.69;4984156;28;20470;-75
2022/06/10 06:03:37;;;;;;;9.43;6.97;;;23.40;57.40;;;21.43;48.45;98627.00;4980436;28;20597;-72
2022/06/10 06:06:06;;;;;;;7.20;6.37;;;23.30;57.30;;;21.06;49.65;98630.75;4974604;28;20550;-73
2022/06/10 06:08:33;;;;;;;8.73;6.77;;;22.90;58.00;;;20.48;50.44;98623.31;4980751;28;20510;-73
2022/06/10 06:11:01;;;;;;;7.73;6.93;;;22.80;58.00;;;20.08;52.33;98639.25;4986655;28;20451;-68
2022/06/10 06:13:28;;;;;;;8.00;6.60;;;22.40;58.60;;;20.89;50.77;98648.28;4981955;28;20471;-67
2022/06/10 06:15:56;;;;;;;8.03;6.60;;;22.20;58.90;;;21.00;50.21;98640.91;4986558;28;20472;-67
2022/06/10 06:18:24;;;;;;;6.43;5.73;;;22.50;58.50;;;21.79;48.04;98645.47;4979621;28;20460;-67
2022/06/10 06:20:51;;;;;;;7.10;6.47;;;23.10;58.10;;;22.22;46.97;98646.03;4982690;28;20526;-66
2022/06/10 06:23:20;;;;;;;7.60;6.50;;;23.70;57.50;;;22.00;47.09;98648.25;4978535;28;20974;-67
2022/06/10 06:25:47;;;;;;;7.50;6.47;;;23.60;56.90;;;21.43;48.34;98651.72;4980933;28;20483;-69
2022/06/10 06:28:14;;;;;;;8.30;7.50;;;23.60;56.80;;;20.65;50.65;98648.66;4975937;28;20575;-68
2022/06/10 06:30:41;;;;;;;7.70;7.03;;;22.80;57.50;;;18.92;55.53;98657.53;4973595;28;20458;-70
2022/06/10 06:33:10;;;;;;;8.37;7.63;;;21.20;58.80;;;18.33;57.71;98669.88;4993855;28;20452;-69
2022/06/10 06:35:40;;;;;;;9.60;7.40;;;20.10;61.20;;;17.61;60.64;98660.44;4977507;28;20525;-69
2022/06/10 06:38:08;;;;;;;8.90;8.10;;;19.10;63.50;;;17.19;62.13;98659.69;4971386;28;20487;-69
2022/06/10 06:40:37;;;;;;;9.93;8.30;;;18.60;65.40;;;17.01;62.80;98647.06;4983432;28;20890;-70
2022/06/10 06:43:04;;;;;;;9.77;8.67;;;18.30;66.60;;;16.87;63.83;98649.19;4978549;28;20470;-68
2022/06/10 06:45:32;;;;;;;9.80;8.37;;;18.10;67.70;;;16.93;64.33;98650.97;4982805;28;21277;-68
2022/06/10 06:47:59;;;;;;;8.63;7.73;;;18.00;69.20;;;16.91;64.27;98663.19;5000264;28;20465;-69
2022/06/10 06:50:30;;;;;;;8.77;7.97;;;17.90;69.50;;;16.82;64.57;98660.00;4984540;28;21034;-68
2022/06/10 06:52:57;;;;;;;10.67;8.70;;;17.90;69.80;;;16.70;64.77;98665.50;4980980;28;20463;-69
2022/06/10 06:55:24;;;;;;;10.40;8.20;;;17.90;70.00;;;16.85;64.44;98664.97;4982635;28;20530;-69
2022/06/10 06:57:54;;;;;;;10.90;7.97;;;17.90;70.30;;;17.02;63.98;98658.78;4982879;28;20570;-68
2022/06/10 07:00:21;;;;;;;9.77;8.03;;;18.00;70.50;;;16.83;63.84;98662.50;5000077;28;20487;-68
2022/06/10 07:02:49;;;;;;;11.57;9.20;;;17.90;70.20;;;16.69;65.05;98667.38;4990324;28;20461;-68
2022/06/10 07:05:16;;;;;;;9.60;8.60;;;17.80;70.80;;;16.68;65.09;98632.97;4978962;28;20509;-67
2022/06/10 07:07:44;;;;;;;8.83;7.50;;;17.90;71.60;;;16.81;64.50;98666.53;4988508;28;20498;-68
2022/06/10 07:10:15;;;;;;;9.30;7.53;;;17.80;71.00;;;16.71;64.09;98657.06;4983961;28;20542;-69
2022/06/10 07:12:42;;;;;;;7.77;6.97;;;17.80;70.80;;;16.70;63.93;98670.94;4996224;28;20471;-67
2022/06/10 07:15:12;;;;;;;7.43;6.83;;;17.80;70.60;;;16.89;63.91;98671.59;4986832;28;20469;-69
2022/06/10 07:17:40;;;;;;;8.03;6.63;;;17.90;70.80;;;16.91;62.98;98674.94;4979983;28;20457;-68
2022/06/10 07:20:12;;;;;;;7.57;6.50;;;17.90;70.00;;;16.54;63.40;98632.44;4980818;28;20475;-68
2022/06/10 07:22:39;;;;;;;7.43;6.20;;;17.90;70.10;;;17.08;62.95;98674.22;4978014;28;20464;-68
2022/06/10 07:25:08;;;;;;;12.60;9.50;;;18.00;70.50;;;17.06;63.10;98670.88;4979397;28;20943;-68
2022/06/10 07:27:36;;;;;;;6.60;6.10;;;18.10;70.60;;;17.07;62.45;98673.38;4993353;28;20480;-68
2022/06/10 07:30:05;;;;;;;8.60;7.40;;;18.10;70.00;;;17.05;62.11;98647.38;4974646;28;20734;-68
2022/06/10 07:32:34;;;;;;;6.17;5.67;;;18.10;69.90;;;17.26;60.79;98665.00;4986245;28;20964;-68
2022/06/10 07:35:01;;;;;;;6.30;5.70;;;18.20;68.60;;;17.31;61.12;98667.00;5016020;27;21553;-68
2022/06/10 07:37:29;;;;;;;5.90;5.40;;;18.30;68.80;;;17.39;60.14;98669.34;5010642;28;20992;-68
2022/06/10 07:39:57;;;;;;;8.40;5.67;;;18.30;68.00;;;17.64;59.64;98666.25;4990767;28;20466;-68
2022/06/10 07:42:23;;;;;;;6.90;5.70;;;18.50;68.00;;;17.64;59.67;98663.53;4984485;28;20493;-72
2022/06/10 07:44:51;;;;;;;6.93;6.33;;;18.60;67.70;;;17.69;60.10;98668.25;5012755;28;20474;-74
2022/06/10 07:47:18;;;;;;;7.40;6.60;;;18.70;68.00;;;17.76;59.57;98657.97;4980486;28;20476;-73
2022/06/10 07:49:47;;;;;;;8.03;6.30;;;18.70;67.60;;;17.87;59.20;98661.72;4989929;28;20453;-71
2022/06/10 07:52:15;;;;;;;6.90;5.17;;;18.80;67.70;;;17.87;58.04;98663.63;4980917;28;20862;-72
2022/06/10 07:54:43;;;;;;;6.10;5.50;;;18.70;66.40;;;17.93;58.22;98657.16;4982773;28;20492;-75
2022/06/10 07:57:11;;;;;;;4.87;4.47;;;18.80;66.70;;;18.06;57.26;98658.78;4984150;28;20205;-72
2022/06/10 07:59:42;;;;;;;6.67;4.90;;;19.00;66.00;;;18.20;57.34;98656.53;4978405;28;20468;-75
2022/06/10 08:02:10;;;;;;;5.63;5.10;;;19.10;66.10;;;18.52;57.31;98664.09;4975881;28;20461;-74
2022/06/10 08:04:37;;;;;;;4.90;4.40;;;19.40;66.60;;;18.65;57.19;98658.28;4987126;28;20618;-71
2022/06/10 08:07:06;;;;;;;6.23;5.67;;;19.60;66.50;;;18.30;55.96;98667.63;4975595;28;20979;-72
2022/06/10 08:09:33;;;;;;;5.93;5.10;;;19.30;64.50;;;18.37;56.43;98654.59;4982657;28;20468;-71
2022/06/10 08:12:00;;;;;;;9.33;4.67;;;19.30;65.40;;;18.60;55.19;98657.38;4984595;28;20452;-72
2022/06/10 08:14:28;;;;;;;4.33;3.93;;;19.50;64.70;;;18.51;55.22;98657.81;4987265;28;20519;-71
2022/06/10 08:16:56;;;;;;;4.27;3.97;;;19.40;64.00;;;18.50;54.82;98652.59;5019561;28;20459;-72
2022/06/10 08:19:23;;;;;;;5.57;4.60;;;19.40;63.60;;;18.56;55.39;98654.31;4982671;28;20460;-71
2022/06/10 08:24:36;;;;;;;5.77;4.50;;;19.50;64.10;;;18.94;53.98;98649.88;5014221;28;20475;-72
2022/06/10 08:27:05;;;;;;;8.80;4.60;;;19.80;63.50;;;18.92;54.14;98657.53;4984345;28;20508;-72
2022/06/10 08:29:33;;;;;;;5.10;4.63;;;19.80;63.20;;;18.90;53.22;98654.22;4981997;28;20470;-71
2022/06/10 08:32:00;;;;;;;5.20;4.73;;;19.80;62.40;;;18.90;54.05;98648.75;5027349;28;20827;-69
2022/06/10 08:34:27;;;;;;;6.07;4.87;;;19.80;62.90;;;18.91;54.47;98644.94;4983774;28;20463;-71
2022/06/10 08:36:54;;;;;;;5.97;5.47;;;19.80;63.20;;;18.72;54.74;98651.78;4995942;28;20465;-71
2022/06/10 08:39:22;;;;;;;4.33;4.00;;;19.70;63.40;;;18.82;53.89;98652.75;4982979;28;21104;-72
2022/06/10 08:42:08;;;;;;;5.60;3.80;;;19.70;62.60;;;18.78;53.12;98661.72;4982449;28;20454;-72
2022/06/10 08:44:41;;;;;;;6.53;4.53;;;19.60;61.80;;;18.93;53.70;98658.34;4984679;28;20975;-70
2022/06/10 08:47:37;;;;;;;4.40;4.00;;;19.70;62.70;;;19.58;52.82;98653.09;5012455;28;20495;-70
2022/06/10 08:50:46;;;;;;;4.90;3.73;;;20.20;62.40;;;19.81;49.54;98660.16;4985634;28;20513;-71
2022/06/10 08:53:32;;;;;;;3.40;3.10;;;20.60;59.80;;;19.92;49.33;98657.50;4978940;28;20482;-71
2022/06/10 08:56:08;;;;;;;3.67;3.37;;;20.70;59.30;;;20.06;49.04;98647.75;4977772;28;20482;-70
2022/06/10 08:58:43;;;;;;;3.90;3.60;;;20.90;59.10;;;19.64;50.03;98653.97;4979477;28;20488;-70
2022/06/10 09:01:18;;;;;;;4.10;3.80;;;20.80;59.00;;;19.59;50.53;98657.47;4976687;28;21310;-70
2022/06/10 09:03:51;;;;;;;4.43;3.77;;;20.50;59.50;;;19.80;51.34;98642.03;4981168;28;20463;-70
2022/06/10 09:06:29;;;;;;;4.50;4.00;;;20.60;60.30;;;20.15;50.26;98642.59;4980307;28;21360;-70
2022/06/10 09:09:03;;;;;;;4.80;3.80;;;20.80;59.90;;;20.35;49.09;98641.91;4984720;28;20458;-70
2022/06/10 09:11:37;;;;;;;3.80;3.03;;;21.10;59.50;;;20.32;48.45;98639.69;4986438;28;20488;-71
2022/06/10 09:14:15;;;;;;;3.80;3.20;;;21.20;58.30;;;20.13;48.73;98649.44;4977055;28;20467;-72
2022/06/10 09:16:51;;;;;;;5.13;4.40;;;21.00;58.10;;;20.03;47.95;98645.53;4987276;28;21164;-71
2022/06/10 09:19:28;;;;;;;4.47;3.27;;;20.90;57.50;;;19.71;49.47;98642.75;4981265;28;20465;-72
2022/06/10 09:22:03;;;;;;;3.57;3.27;;;20.70;58.30;;;19.83;48.87;98640.66;4978659;28;20460;-70
2022/06/10 09:24:36;;;;;;;3.23;2.57;;;20.70;58.00;;;19.91;48.71;98647.59;4980671;28;20820;-70
2022/06/10 09:27:10;;;;;;;4.50;3.47;;;20.70;57.90;;;19.67;49.30;98645.22;4982585;28;20484;-70
2022/06/10 09:29:40;;;;;;;4.23;3.83;;;20.60;57.90;;;19.63;49.50;98646.78;4977587;28;20981;-72
2022/06/10 09:32:14;;;;;;;3.37;3.07;;;20.50;58.10;;;19.80;50.00;98649.44;4972836;28;20486;-71
2022/06/10 09:34:54;;;;;;;4.00;3.40;;;20.60;58.90;;;19.95;47.86;98646.84;5008539;28;20467;-72
2022/06/10 09:37:32;;;;;;;3.90;2.73;;;20.70;57.50;;;20.15;47.83;98644.53;4973057;28;20467;-72
2022/06/10 09:43:17;;;;;;;3.80;3.50;;;21.10;57.10;;;20.48;48.22;98648.88;5000644;28;20453;-71
2022/06/10 09:45:52;;;;;;;3.83;3.53;;;21.20;57.70;;;20.52;47.38;98651.88;4980175;28;20490;-72
2022/06/10 09:48:38;;;;;;;7.47;3.37;;;21.30;57.40;;;20.73;47.38;98643.78;4976845;28;20484;-72
2022/06/10 09:51:14;;;;;;;3.17;2.90;;;21.50;57.60;;;20.51;46.50;98659.31;4974650;28;20832;-71
2022/06/10 09:54:00;;;;;;;4.27;3.23;;;21.50;56.20;;;20.10;47.81;98654.38;4986272;28;20465;-72
2022/06/10 09:56:58;;;;;;;3.73;3.33;;;21.10;56.30;;;20.08;48.78;98650.25;4977490;28;21306;-71
2022/06/10 09:59:36;;;;;;;3.27;2.53;;;21.00;57.50;;;20.32;47.72;98645.19;5000373;28;20467;-71
2022/06/10 10:02:37;;;;;;;5.53;2.50;;;21.10;56.80;;;20.63;44.82;98644.56;5010603;28;21015;-72
2022/06/10 10:05:37;;;;;;;3.03;2.70;;;21.40;55.40;;;20.38;44.79;98641.38;4976150;28;20465;-70
2022/06/10 10:08:17;;;;;;;2.67;2.47;;;21.30;54.40;;;20.37;45.60;98642.47;4979507;28;20483;-73
2022/06/10 10:10:52;;;;;;;3.37;3.07;;;21.30;55.00;;;20.45;45.19;98649.38;4986506;28;20880;-73
2022/06/10 10:13:53;;;;;;;2.73;2.50;;;21.30;54.60;;;20.60;45.56;98634.09;4978628;28;20495;-70
2022/06/10 10:16:31;;;;;;;3.50;2.57;;;21.40;55.50;;;20.97;45.07;98643.34;4999812;28;20467;-71
2022/06/10 10:19:19;;;;;;;3.13;2.87;;;21.60;55.20;;;20.89;45.13;98636.44;4976323;28;20510;-71
2022/06/10 10:21:58;;;;;;;4.40;3.43;;;21.70;55.30;;;21.28;44.94;98626.97;4980663;28;20515;-71
2022/06/10 10:24:27;;;;;;;3.10;2.90;;;21.90;56.00;;;21.65;44.78;98629.53;4982076;28;20466;-70
2022/06/10 10:26:58;;;;;;;3.70;2.67;;;22.20;55.80;;;21.82;42.55;98630.38;4976520;28;20538;-72
2022/06/10 10:29:29;;;;;;;2.50;2.30;;;22.50;54.20;;;21.82;42.80;98635.88;4977775;28;20523;-73
2022/06/10 10:32:03;;;;;;;3.57;3.20;;;22.60;54.20;;;21.60;42.54;98623.16;4992305;28;20835;-73
2022/06/10 10:34:37;;;;;;;2.63;2.43;;;22.40;53.20;;;21.50;43.27;98629.47;4975491;28;20835;-71
2022/06/10 10:37:21;;;;;;;3.73;2.60;;;22.40;53.70;;;21.33;42.16;98629.75;4971161;28;20839;-71
2022/06/10 10:39:52;;;;;;;2.67;2.47;;;22.20;53.10;;;21.34;41.71;98629.44;5013457;28;20510;-72
2022/06/10 10:42:24;;;;;;;4.63;2.83;;;22.10;52.40;;;21.50;42.24;98630.31;4998251;28;20995;-71
2022/06/10 10:45:00;;;;;;;2.60;2.40;;;22.20;52.80;;;21.60;41.57;98628.66;5031048;28;20505;-71
2022/06/10 10:47:28;;;;;;;4.50;3.17;;;22.40;52.50;;;21.28;42.07;98637.94;4988360;28;20484;-71
2022/06/10 10:50:18;;;;;;;2.70;2.50;;;22.10;52.30;;;21.18;42.81;98619.53;4983787;28;20464;-72
2022/06/10 10:52:48;;;;;;;3.33;3.03;;;21.90;52.60;;;21.36;42.62;98618.19;4983373;28;20463;-70